Time;durP1;ratioP1;P1;durP2;ratioP2;P2;SDS_P1;SDS_P2;PMS_P1;PMS_P2;Temp;Humidity;BMP_temperature;BMP_pressure;BME280_temperature;BME280_humidity;BME280_pressure;Samples;Min_cycle;Max_cycle;Signal;HPM_P1;HPM_P2
2023/05/20 00:00:10;;;;;;;8.82;2.20;;;;;;;;;;7373127;19;20588;-70
2023/05/20 00:02:35;;;;;;;4.93;2.40;;;;;;;;;;7372486;19;20085;-70
2023/05/20 00:05:01;;;;;;;4.97;2.17;;;;;;;;;;7373180;19;20035;-69
2023/05/20 00:07:26;;;;;;;3.35;2.13;;;;;;;;;;7371699;19;20041;-69
2023/05/20 00:09:52;;;;;;;5.07;2.50;;;;;;;;;;7398901;19;20006;-69
2023/05/20 00:12:17;;;;;;;4.25;2.25;;;;;;;;;;7375328;19;20023;-70
2023/05/20 00:14:43;;;;;;;5.28;2.30;;;;;;;;;;7374385;19;20013;-70
2023/05/20 00:17:08;;;;;;;3.92;2.25;;;;;;;;;;7373567;19;20049;-68
2023/05/20 00:19:33;;;;;;;5.50;2.58;;;;;;;;;;7374676;19;20015;-69
2023/05/20 00:21:59;;;;;;;4.97;3.03;;;;;;;;;;7397096;19;20032;-69
2023/05/20 00:24:24;;;;;;;7.47;2.90;;;;;;;;;;7375618;19;20010;-68
2023/05/20 00:26:50;;;;;;;6.57;2.60;;;;;;;;;;7373981;19;20074;-70
2023/05/20 00:29:15;;;;;;;6.53;2.55;;;;;;;;;;7372753;19;20011;-70
2023/05/20 00:31:41;;;;;;;7.90;3.15;;;;;;;;;;7371866;19;20011;-69
2023/05/20 00:34:07;;;;;;;4.28;2.38;;;;;;;;;;7396484;19;20006;-69
2023/05/20 00:36:32;;;;;;;9.85;3.83;;;;;;;;;;7376223;19;20024;-70
2023/05/20 00:38:57;;;;;;;5.15;2.35;;;;;;;;;;7374873;19;20550;-70
2023/05/20 00:41:23;;;;;;;6.63;3.10;;;;;;;;;;7376094;19;20006;-69
2023/05/20 00:43:52;;;;;;;5.70;2.20;;;;;;;;;;7375475;19;20011;-69
2023/05/20 00:46:17;;;;;;;6.15;2.75;;;;;;;;;;7374631;19;20464;-69
2023/05/20 00:48:43;;;;;;;7.93;2.22;;;;;;;;;;7394011;19;20074;-69
2023/05/20 00:51:10;;;;;;;4.78;2.50;;;;;;;;;;7373028;19;20131;-69
2023/05/20 00:53:36;;;;;;;8.25;2.45;;;;;;;;;;7372916;19;20014;-69
2023/05/20 00:56:03;;;;;;;5.10;2.53;;;;;;;;;;7371938;19;20706;-69
2023/05/20 00:58:28;;;;;;;4.88;2.80;;;;;;;;;;7371365;19;20003;-69
2023/05/20 01:00:54;;;;;;;4.20;2.30;;;;;;;;;;7393146;19;20006;-70
2023/05/20 01:03:19;;;;;;;3.97;2.50;;;;;;;;;;7369070;19;20006;-69
2023/05/20 01:05:45;;;;;;;9.25;2.78;;;;;;;;;;7369971;19;20037;-70
2023/05/20 01:08:11;;;;;;;6.07;2.63;;;;;;;;;;7369167;19;20107;-70
2023/05/20 01:10:40;;;;;;;6.80;2.72;;;;;;;;;;7370815;19;20025;-70
2023/05/20 01:13:10;;;;;;;12.18;3.55;;;;;;;;;;7393151;19;20058;-70
2023/05/20 01:15:39;;;;;;;8.65;2.95;;;;;;;;;;7371051;19;20006;-70
2023/05/20 01:18:07;;;;;;;14.60;3.00;;;;;;;;;;7369339;19;20006;-69
2023/05/20 01:20:34;;;;;;;13.07;3.50;;;;;;;;;;7371325;19;20013;-70
2023/05/20 01:23:00;;;;;;;11.75;3.85;;;;;;;;;;7370242;19;20499;-70
2023/05/20 01:25:25;;;;;;;8.57;2.95;;;;;;;;;;7370634;19;20074;-69
2023/05/20 01:27:53;;;;;;;5.60;2.45;;;;;;;;;;7388531;19;20009;-70
2023/05/20 01:30:19;;;;;;;9.75;3.30;;;;;;;;;;7370459;19;20019;-70
2023/05/20 01:32:51;;;;;;;5.97;3.80;;;;;;;;;;7370371;19;20018;-70
2023/05/20 01:35:16;;;;;;;5.68;2.85;;;;;;;;;;7371240;19;20022;-70
2023/05/20 01:37:42;;;;;;;5.47;2.38;;;;;;;;;;7367390;19;20010;-70
2023/05/20 01:40:10;;;;;;;8.25;3.10;;;;;;;;;;7375591;19;20018;-70
2023/05/20 01:42:37;;;;;;;7.68;2.70;;;;;;;;;;7392074;19;20113;-70
2023/05/20 01:45:03;;;;;;;7.53;2.75;;;;;;;;;;7369108;19;20013;-70
2023/05/20 01:47:30;;;;;;;9.95;3.10;;;;;;;;;;7368373;19;20026;-70
2023/05/20 01:49:55;;;;;;;12.90;3.13;;;;;;;;;;7371438;19;20010;-70
2023/05/20 01:52:22;;;;;;;9.02;3.08;;;;;;;;;;7372091;19;19999;-70
2023/05/20 01:54:50;;;;;;;16.08;3.50;;;;;;;;;;7395099;19;20006;-70
2023/05/20 01:57:19;;;;;;;23.77;4.00;;;;;;;;;;7368120;19;20006;-71
2023/05/20 01:59:45;;;;;;;12.18;3.08;;;;;;;;;;7369960;19;20468;-71
2023/05/20 02:02:11;;;;;;;14.70;3.17;;;;;;;;;;7369557;19;20013;-70
2023/05/20 02:04:36;;;;;;;18.33;4.25;;;;;;;;;;7370294;19;20009;-70
2023/05/20 02:07:01;;;;;;;14.48;3.67;;;;;;;;;;7390656;19;20011;-69
2023/05/20 02:09:27;;;;;;;19.00;3.67;;;;;;;;;;7368689;19;20034;-70
2023/05/20 02:11:52;;;;;;;22.77;3.78;;;;;;;;;;7367434;19;20364;-70
2023/05/20 02:14:18;;;;;;;10.75;3.20;;;;;;;;;;7369093;19;20023;-70
2023/05/20 02:16:45;;;;;;;10.55;2.95;;;;;;;;;;7368677;19;20026;-70
2023/05/20 02:19:11;;;;;;;5.68;2.88;;;;;;;;;;7367890;19;20011;-70
2023/05/20 02:21:39;;;;;;;9.90;2.90;;;;;;;;;;7389739;19;20002;-70
2023/05/20 02:24:05;;;;;;;12.52;3.40;;;;;;;;;;7369373;19;20369;-70
2023/05/20 02:26:30;;;;;;;10.18;3.67;;;;;;;;;;7367237;19;20002;-69
2023/05/20 02:28:55;;;;;;;12.55;3.72;;;;;;;;;;7367199;19;20009;-69
2023/05/20 02:31:21;;;;;;;12.35;3.60;;;;;;;;;;7366821;19;20009;-69
2023/05/20 02:33:47;;;;;;;10.30;3.45;;;;;;;;;;7389704;19;20028;-70
2023/05/20 02:36:12;;;;;;;14.00;4.43;;;;;;;;;;7367633;19;20010;-70
2023/05/20 02:38:37;;;;;;;12.18;3.72;;;;;;;;;;7367808;19;19999;-70
2023/05/20 02:41:03;;;;;;;11.75;3.65;;;;;;;;;;7373474;19;20013;-69
2023/05/20 02:43:30;;;;;;;13.05;3.92;;;;;;;;;;7374672;19;20056;-69
2023/05/20 02:45:55;;;;;;;17.92;4.22;;;;;;;;;;7397168;19;20006;-70
2023/05/20 02:48:21;;;;;;;17.00;3.83;;;;;;;;;;7374093;19;20011;-69
2023/05/20 02:50:46;;;;;;;9.25;3.45;;;;;;;;;;7375004;19;20377;-70
2023/05/20 02:53:11;;;;;;;9.80;4.10;;;;;;;;;;7376768;19;20007;-70
2023/05/20 02:55:37;;;;;;;13.63;3.53;;;;;;;;;;7376472;19;20006;-69
2023/05/20 02:58:02;;;;;;;10.75;3.30;;;;;;;;;;7393189;19;20003;-70
2023/05/20 03:00:30;;;;;;;16.27;3.67;;;;;;;;;;7375616;19;20007;-70
2023/05/20 03:02:55;;;;;;;11.27;3.33;;;;;;;;;;7375872;19;20030;-70
2023/05/20 03:05:21;;;;;;;10.93;4.05;;;;;;;;;;7375935;19;20010;-70
2023/05/20 03:07:47;;;;;;;10.52;3.60;;;;;;;;;;7373051;19;20003;-69
2023/05/20 03:10:13;;;;;;;12.30;3.92;;;;;;;;;;7375031;19;20034;-69
2023/05/20 03:12:39;;;;;;;12.05;3.72;;;;;;;;;;7394823;19;20007;-70
2023/05/20 03:15:04;;;;;;;13.77;3.80;;;;;;;;;;7374445;19;20254;-70
2023/05/20 03:17:30;;;;;;;16.20;3.70;;;;;;;;;;7374366;19;20011;-70
2023/05/20 03:19:55;;;;;;;13.73;4.32;;;;;;;;;;7374861;19;20492;-70
2023/05/20 03:22:20;;;;;;;12.23;3.50;;;;;;;;;;7374419;19;20003;-70
2023/05/20 03:24:47;;;;;;;9.35;3.67;;;;;;;;;;7396590;19;19998;-70
2023/05/20 03:27:12;;;;;;;7.63;3.58;;;;;;;;;;7372074;19;20010;-70
2023/05/20 03:29:38;;;;;;;10.98;4.53;;;;;;;;;;7375249;19;20210;-70
2023/05/20 03:32:03;;;;;;;7.15;3.55;;;;;;;;;;7372830;19;20010;-70
2023/05/20 03:34:29;;;;;;;9.68;3.75;;;;;;;;;;7371703;19;20121;-70
2023/05/20 03:36:56;;;;;;;11.77;3.60;;;;;;;;;;7391661;19;20591;-70
2023/05/20 03:39:21;;;;;;;12.82;3.80;;;;;;;;;;7370167;19;20018;-70
2023/05/20 03:41:47;;;;;;;12.80;3.90;;;;;;;;;;7370626;19;20066;-70
2023/05/20 03:44:12;;;;;;;6.90;3.35;;;;;;;;;;7375780;19;20011;-70
2023/05/20 03:46:37;;;;;;;11.95;3.53;;;;;;;;;;7373191;19;20949;-69
2023/05/20 03:49:04;;;;;;;9.90;3.53;;;;;;;;;;7391895;19;20509;-70
2023/05/20 03:51:30;;;;;;;13.60;3.50;;;;;;;;;;7369490;19;20006;-70
2023/05/20 03:53:55;;;;;;;9.00;3.75;;;;;;;;;;7364577;19;20099;-70
2023/05/20 03:56:21;;;;;;;13.15;3.78;;;;;;;;;;7371045;19;20368;-70
2023/05/20 03:58:46;;;;;;;12.23;3.50;;;;;;;;;;7370053;19;20014;-70
2023/05/20 04:01:13;;;;;;;15.35;4.20;;;;;;;;;;7370979;19;20006;-70
2023/05/20 04:03:38;;;;;;;12.00;4.05;;;;;;;;;;7393191;19;20021;-70
2023/05/20 04:06:04;;;;;;;13.90;3.95;;;;;;;;;;7370902;19;20627;-70
2023/05/20 04:08:30;;;;;;;11.27;3.97;;;;;;;;;;7370174;19;20014;-70
2023/05/20 04:10:56;;;;;;;11.75;3.70;;;;;;;;;;7370379;19;20372;-69
2023/05/20 04:13:24;;;;;;;17.33;4.57;;;;;;;;;;7371591;19;19999;-69
2023/05/20 04:15:51;;;;;;;11.68;4.00;;;;;;;;;;7392586;19;20013;-70
2023/05/20 04:18:16;;;;;;;16.38;4.57;;;;;;;;;;7369028;19;20033;-70
2023/05/20 04:20:42;;;;;;;15.80;4.32;;;;;;;;;;7370413;19;20477;-70
2023/05/20 04:23:07;;;;;;;15.18;3.80;;;;;;;;;;7370656;19;20231;-70
2023/05/20 04:25:34;;;;;;;13.68;4.35;;;;;;;;;;7370659;19;20540;-70
2023/05/20 04:28:00;;;;;;;21.88;5.40;;;;;;;;;;7388949;19;20371;-70
2023/05/20 04:30:25;;;;;;;20.67;4.15;;;;;;;;;;7369949;19;20010;-70
2023/05/20 04:32:51;;;;;;;19.25;4.07;;;;;;;;;;7231980;19;2761834;-70
2023/05/20 04:35:17;;;;;;;12.70;4.10;;;;;;;;;;7373023;19;20345;-70
2023/05/20 04:37:46;;;;;;;15.02;4.15;;;;;;;;;;7370073;19;20002;-70
2023/05/20 04:40:12;;;;;;;6.80;2.97;;;;;;;;;;7372403;19;20010;-69
2023/05/20 04:42:38;;;;;;;17.83;4.35;;;;;;;;;;7394204;19;20013;-69
2023/05/20 04:45:04;;;;;;;9.93;3.95;;;;;;;;;;7371796;19;20097;-69
2023/05/20 04:47:37;;;;;;;6.57;3.10;;;;;;;;;;7371614;19;20750;-69
2023/05/20 04:50:04;;;;;;;9.07;3.85;;;;;;;;;;7373246;19;20039;-69
2023/05/20 04:52:29;;;;;;;11.32;3.70;;;;;;;;;;7370745;19;20013;-70
2023/05/20 04:54:57;;;;;;;10.43;3.58;;;;;;;;;;7394099;19;20006;-69
2023/05/20 04:57:22;;;;;;;6.68;3.22;;;;;;;;;;7370187;19;20006;-70
2023/05/20 04:59:47;;;;;;;6.05;3.22;;;;;;;;;;7372750;19;20220;-69
2023/05/20 05:02:13;;;;;;;6.97;3.38;;;;;;;;;;7369886;19;20081;-69
2023/05/20 05:04:38;;;;;;;5.72;2.95;;;;;;;;;;7372772;19;20014;-69
2023/05/20 05:07:04;;;;;;;8.00;3.40;;;;;;;;;;7393008;19;20011;-69
2023/05/20 05:09:29;;;;;;;5.95;3.10;;;;;;;;;;7370671;19;20010;-69
2023/05/20 05:11:55;;;;;;;5.95;3.50;;;;;;;;;;7371360;19;20020;-70
2023/05/20 05:14:21;;;;;;;5.30;3.10;;;;;;;;;;7371589;19;20006;-70
2023/05/20 05:16:46;;;;;;;6.20;3.35;;;;;;;;;;7371207;19;20385;-69
2023/05/20 05:19:12;;;;;;;5.63;3.50;;;;;;;;;;7370618;19;20002;-69
2023/05/20 05:21:37;;;;;;;9.77;3.60;;;;;;;;;;7394806;19;19999;-69
2023/05/20 05:24:03;;;;;;;7.63;3.22;;;;;;;;;;7370782;19;20006;-69
2023/05/20 05:26:28;;;;;;;8.35;3.35;;;;;;;;;;7367817;19;20007;-69
2023/05/20 05:28:54;;;;;;;5.82;2.95;;;;;;;;;;7367458;19;20002;-69
2023/05/20 05:31:19;;;;;;;5.38;3.17;;;;;;;;;;7366872;19;20009;-69
2023/05/20 05:33:44;;;;;;;5.10;3.38;;;;;;;;;;7389227;19;20008;-70
2023/05/20 05:36:10;;;;;;;6.70;3.53;;;;;;;;;;7367773;19;20404;-69
2023/05/20 05:38:35;;;;;;;6.60;3.40;;;;;;;;;;7369271;19;20850;-69
2023/05/20 05:41:01;;;;;;;5.82;3.17;;;;;;;;;;7372780;19;20031;-69
2023/05/20 05:43:26;;;;;;;10.00;3.95;;;;;;;;;;7378983;19;20012;-69
2023/05/20 05:45:51;;;;;;;5.50;3.22;;;;;;;;;;7398012;19;20002;-70
2023/05/20 05:48:17;;;;;;;8.82;3.83;;;;;;;;;;7375050;19;20518;-69
2023/05/20 05:50:44;;;;;;;5.80;3.30;;;;;;;;;;7375100;19;19999;-69
2023/05/20 05:53:10;;;;;;;6.43;3.55;;;;;;;;;;7374506;19;20385;-69
2023/05/20 05:55:35;;;;;;;7.43;3.42;;;;;;;;;;7374422;19;20078;-69
2023/05/20 05:58:00;;;;;;;4.65;3.03;;;;;;;;;;7393581;19;20014;-69
2023/05/20 06:00:26;;;;;;;5.50;3.05;;;;;;;;;;7370275;19;20350;-71
2023/05/20 06:02:51;;;;;;;8.38;3.38;;;;;;;;;;7370359;19;20088;-70
2023/05/20 06:05:16;;;;;;;5.68;3.25;;;;;;;;;;7369929;19;20485;-70
2023/05/20 06:07:42;;;;;;;7.28;3.38;;;;;;;;;;7368760;19;20066;-70
2023/05/20 06:10:08;;;;;;;7.30;3.60;;;;;;;;;;7385720;19;20074;-70
2023/05/20 06:12:33;;;;;;;5.75;3.30;;;;;;;;;;7383551;19;20017;-69
2023/05/20 06:14:58;;;;;;;7.82;3.65;;;;;;;;;;7368631;19;20006;-69
2023/05/20 06:17:24;;;;;;;4.95;3.08;;;;;;;;;;7367526;19;20011;-70
2023/05/20 06:19:49;;;;;;;7.47;3.40;;;;;;;;;;7369962;19;20365;-70
2023/05/20 06:22:14;;;;;;;5.57;3.60;;;;;;;;;;7371094;19;20009;-69
2023/05/20 06:24:40;;;;;;;5.40;2.75;;;;;;;;;;7391032;19;19995;-69
2023/05/20 06:27:05;;;;;;;5.00;2.47;;;;;;;;;;7367505;19;20036;-69
2023/05/20 06:29:30;;;;;;;5.82;3.20;;;;;;;;;;7368127;19;20343;-70
2023/05/20 06:31:56;;;;;;;7.55;3.85;;;;;;;;;;7367967;19;20017;-69
2023/05/20 06:34:21;;;;;;;6.47;3.83;;;;;;;;;;7367752;19;20461;-70
2023/05/20 06:36:46;;;;;;;9.60;3.70;;;;;;;;;;7390780;19;20649;-69
2023/05/20 06:39:12;;;;;;;5.82;3.55;;;;;;;;;;7367558;19;20032;-69
2023/05/20 06:41:38;;;;;;;6.03;3.65;;;;;;;;;;7369716;19;20002;-68
2023/05/20 06:44:04;;;;;;;7.38;3.47;;;;;;;;;;7369226;19;20719;-69
2023/05/20 06:46:30;;;;;;;5.88;3.65;;;;;;;;;;7368141;19;20007;-70
2023/05/20 06:48:55;;;;;;;6.50;3.80;;;;;;;;;;7390594;19;20023;-69
2023/05/20 06:51:21;;;;;;;4.43;2.88;;;;;;;;;;7367650;19;20039;-69
2023/05/20 06:53:46;;;;;;;6.63;3.60;;;;;;;;;;7368815;19;20002;-69
2023/05/20 06:56:12;;;;;;;5.20;3.28;;;;;;;;;;7368762;19;20011;-69
2023/05/20 06:58:37;;;;;;;5.00;2.90;;;;;;;;;;7367828;19;20543;-69
2023/05/20 07:01:02;;;;;;;6.13;3.75;;;;;;;;;;7391857;19;20013;-69
2023/05/20 07:03:28;;;;;;;7.03;3.90;;;;;;;;;;7368820;19;20479;-69
2023/05/20 07:05:53;;;;;;;7.95;4.15;;;;;;;;;;7368547;19;20010;-69
2023/05/20 07:08:18;;;;;;;7.50;3.63;;;;;;;;;;7366060;19;20035;-70
2023/05/20 07:10:45;;;;;;;9.07;4.40;;;;;;;;;;7368106;19;20480;-69
2023/05/20 07:13:10;;;;;;;8.00;3.65;;;;;;;;;;7368576;19;20006;-70
2023/05/20 07:15:35;;;;;;;5.85;3.42;;;;;;;;;;7388910;19;20066;-70
2023/05/20 07:18:01;;;;;;;4.80;2.88;;;;;;;;;;7365464;19;20011;-70
2023/05/20 07:20:26;;;;;;;6.70;3.92;;;;;;;;;;7367412;19;20389;-70
2023/05/20 07:22:51;;;;;;;7.32;4.35;;;;;;;;;;7366955;19;20010;-71
2023/05/20 07:25:17;;;;;;;7.18;4.15;;;;;;;;;;7368927;19;20019;-70
2023/05/20 07:27:42;;;;;;;8.57;4.18;;;;;;;;;;7394970;19;19998;-70
2023/05/20 07:30:08;;;;;;;7.82;4.32;;;;;;;;;;7375701;19;20002;-69
2023/05/20 07:32:33;;;;;;;7.78;4.97;;;;;;;;;;7374290;19;20003;-69
2023/05/20 07:34:59;;;;;;;7.65;4.40;;;;;;;;;;7375854;19;20020;-69
2023/05/20 07:37:24;;;;;;;10.70;4.57;;;;;;;;;;7373924;19;20010;-71
2023/05/20 07:39:50;;;;;;;6.28;3.85;;;;;;;;;;7396457;19;20440;-70
2023/05/20 07:42:15;;;;;;;8.15;3.90;;;;;;;;;;7373630;19;20533;-70
2023/05/20 07:44:40;;;;;;;7.00;4.60;;;;;;;;;;7374020;19;20389;-70
2023/05/20 07:47:06;;;;;;;6.90;4.38;;;;;;;;;;7374106;19;20006;-70
2023/05/20 07:49:31;;;;;;;5.95;3.60;;;;;;;;;;7372417;19;20090;-70
2023/05/20 07:51:57;;;;;;;6.82;4.30;;;;;;;;;;7394924;19;20003;-70
2023/05/20 07:54:23;;;;;;;8.38;5.05;;;;;;;;;;7373977;19;20046;-70
2023/05/20 07:56:48;;;;;;;8.35;4.50;;;;;;;;;;7375219;19;20014;-70
2023/05/20 07:59:13;;;;;;;9.93;4.53;;;;;;;;;;7373964;19;20532;-69
2023/05/20 08:01:41;;;;;;;9.23;4.90;;;;;;;;;;7377019;19;20009;-69
2023/05/20 08:04:06;;;;;;;8.38;5.40;;;;;;;;;;7395976;19;20479;-69
2023/05/20 08:06:31;;;;;;;9.32;4.47;;;;;;;;;;7373545;19;20118;-69
2023/05/20 08:08:57;;;;;;;10.38;4.85;;;;;;;;;;7374877;19;20010;-70
2023/05/20 08:11:22;;;;;;;7.93;4.93;;;;;;;;;;7375456;19;20663;-70
2023/05/20 08:13:48;;;;;;;8.27;4.63;;;;;;;;;;7381682;19;20007;-71
2023/05/20 08:16:13;;;;;;;6.93;4.03;;;;;;;;;;7392137;19;20014;-68
2023/05/20 08:18:39;;;;;;;11.68;4.65;;;;;;;;;;7413156;19;20011;-70
2023/05/20 08:21:08;;;;;;;8.93;4.55;;;;;;;;;;7395761;19;20002;-69
2023/05/20 08:23:34;;;;;;;8.30;4.97;;;;;;;;;;7384348;19;20003;-69
2023/05/20 08:26:01;;;;;;;8.68;5.30;;;;;;;;;;7378830;19;20010;-70
2023/05/20 08:28:27;;;;;;;6.35;4.20;;;;;;;;;;7379052;19;20003;-69
2023/05/20 08:30:53;;;;;;;8.30;4.55;;;;;;;;;;7399234;19;19994;-70
2023/05/20 08:33:20;;;;;;;8.38;5.30;;;;;;;;;;7372439;19;20006;-70
2023/05/20 08:35:46;;;;;;;6.75;4.65;;;;;;;;;;7371417;19;20016;-70
2023/05/20 08:38:11;;;;;;;9.68;4.80;;;;;;;;;;7367779;19;20011;-69
2023/05/20 08:40:37;;;;;;;9.90;4.38;;;;;;;;;;7372651;19;20456;-69
2023/05/20 08:43:03;;;;;;;8.15;4.80;;;;;;;;;;7394169;19;20006;-69
2023/05/20 08:45:31;;;;;;;6.07;3.80;;;;;;;;;;7371310;19;20006;-69
2023/05/20 08:47:57;;;;;;;10.35;5.05;;;;;;;;;;7369364;19;20006;-69
2023/05/20 08:50:22;;;;;;;7.57;4.95;;;;;;;;;;7371602;19;20007;-69
2023/05/20 08:52:48;;;;;;;6.95;4.70;;;;;;;;;;7369940;19;20817;-69
2023/05/20 08:55:42;;;;;;;7.30;4.55;;;;;;;;;;7372289;19;20027;-69
2023/05/20 08:58:08;;;;;;;8.48;5.22;;;;;;;;;;7381470;19;20014;-69
2023/05/20 09:00:34;;;;;;;9.02;5.25;;;;;;;;;;7394170;19;20346;-69
2023/05/20 09:03:00;;;;;;;7.25;5.20;;;;;;;;;;7372082;19;20010;-69
2023/05/20 09:05:26;;;;;;;8.77;5.10;;;;;;;;;;7372725;19;20011;-68
2023/05/20 09:07:51;;;;;;;9.30;5.60;;;;;;;;;;7371473;19;20003;-70
2023/05/20 09:10:18;;;;;;;8.13;5.45;;;;;;;;;;7371896;19;20074;-69
2023/05/20 09:12:44;;;;;;;9.07;5.65;;;;;;;;;;7391683;19;20014;-69
2023/05/20 09:15:09;;;;;;;7.78;5.10;;;;;;;;;;7370059;19;20039;-69
2023/05/20 09:17:35;;;;;;;9.55;5.75;;;;;;;;;;7371161;19;20009;-70
2023/05/20 09:20:05;;;;;;;11.18;5.93;;;;;;;;;;7369878;19;20009;-69
2023/05/20 09:22:30;;;;;;;7.78;4.82;;;;;;;;;;7371455;19;20011;-68
2023/05/20 09:24:56;;;;;;;8.13;4.60;;;;;;;;;;7393365;19;20009;-69
2023/05/20 09:27:22;;;;;;;8.32;5.18;;;;;;;;;;7368839;19;20006;-70
2023/05/20 09:29:48;;;;;;;8.13;5.07;;;;;;;;;;7360029;19;20386;-70
2023/05/20 09:32:14;;;;;;;8.18;5.40;;;;;;;;;;7367442;19;20384;-70
2023/05/20 09:34:44;;;;;;;7.97;5.65;;;;;;;;;;7365268;19;20010;-69
2023/05/20 09:37:10;;;;;;;8.57;5.72;;;;;;;;;;7366164;19;20002;-70
2023/05/20 09:39:48;;;;;;;8.73;5.90;;;;;;;;;;7384564;19;20014;-70
2023/05/20 09:42:30;;;;;;;10.93;6.07;;;;;;;;;;7364456;19;20078;-70
2023/05/20 09:44:56;;;;;;;9.85;6.00;;;;;;;;;;7364255;19;20415;-71
2023/05/20 09:47:23;;;;;;;10.65;5.60;;;;;;;;;;7362546;19;20079;-71
2023/05/20 09:49:51;;;;;;;12.48;6.40;;;;;;;;;;7365418;19;20016;-69
2023/05/20 09:52:17;;;;;;;10.30;6.15;;;;;;;;;;7365166;19;20014;-70
2023/05/20 09:54:43;;;;;;;17.23;6.97;;;;;;;;;;7386895;19;20011;-74
2023/05/20 09:57:09;;;;;;;14.93;6.20;;;;;;;;;;7364473;19;20045;-71
2023/05/20 09:59:36;;;;;;;8.68;5.18;;;;;;;;;;7363305;19;20804;-69
2023/05/20 10:02:02;;;;;;;6.93;5.35;;;;;;;;;;7366611;19;20014;-70
2023/05/20 10:04:29;;;;;;;9.32;5.85;;;;;;;;;;7366677;19;20327;-69
2023/05/20 10:07:25;;;;;;;9.73;5.57;;;;;;;;;;7390436;19;20011;-70
2023/05/20 10:09:56;;;;;;;13.77;5.40;;;;;;;;;;7370419;19;20019;-70
2023/05/20 10:12:49;;;;;;;9.25;6.45;;;;;;;;;;7365064;19;20010;-70
2023/05/20 10:15:27;;;;;;;8.73;5.60;;;;;;;;;;7365731;19;20006;-70
2023/05/20 10:18:17;;;;;;;8.05;5.88;;;;;;;;;;7365264;19;21001;-72
2023/05/20 10:20:46;;;;;;;8.97;5.47;;;;;;;;;;7365556;19;20476;-69
2023/05/20 10:23:22;;;;;;;10.95;5.47;;;;;;;;;;7366873;19;20013;-70
2023/05/20 10:25:52;;;;;;;16.20;4.95;;;;;;;;;;7365865;19;20010;-70
2023/05/20 10:28:28;;;;;;;12.70;5.82;;;;;;;;;;7361969;19;20006;-70
2023/05/20 10:30:53;;;;;;;22.77;5.65;;;;;;;;;;7389389;19;20010;-70
2023/05/20 10:33:19;;;;;;;10.70;5.50;;;;;;;;;;7364668;19;20007;-70
2023/05/20 10:35:50;;;;;;;12.30;5.65;;;;;;;;;;7365506;19;20013;-70
2023/05/20 10:38:15;;;;;;;8.20;5.10;;;;;;;;;;7363599;19;20029;-69
2023/05/20 10:40:41;;;;;;;9.40;5.40;;;;;;;;;;7364224;19;20476;-69
2023/05/20 10:43:13;;;;;;;8.55;5.97;;;;;;;;;;7387179;19;20675;-68
2023/05/20 10:45:49;;;;;;;9.98;5.40;;;;;;;;;;7362350;19;20014;-70
2023/05/20 10:48:27;;;;;;;6.35;4.43;;;;;;;;;;7363076;19;20068;-70
2023/05/20 10:51:02;;;;;;;9.43;5.40;;;;;;;;;;7365514;19;20118;-69
2023/05/20 10:53:29;;;;;;;8.43;5.82;;;;;;;;;;7364770;19;20408;-69
2023/05/20 10:55:55;;;;;;;9.50;5.85;;;;;;;;;;7366064;19;20078;-69
2023/05/20 10:58:22;;;;;;;10.73;5.75;;;;;;;;;;7362007;19;20015;-71
2023/05/20 11:00:49;;;;;;;10.73;5.60;;;;;;;;;;7390505;19;20006;-69
2023/05/20 11:03:17;;;;;;;14.13;5.72;;;;;;;;;;7372940;19;20011;-69
2023/05/20 11:05:43;;;;;;;12.88;5.85;;;;;;;;;;7367522;19;20014;-69
2023/05/20 11:08:09;;;;;;;13.98;5.15;;;;;;;;;;7371131;19;20017;-70
2023/05/20 11:10:35;;;;;;;14.27;5.90;;;;;;;;;;7372982;19;20114;-69
2023/05/20 11:13:02;;;;;;;7.72;4.60;;;;;;;;;;7396174;19;20327;-69
2023/05/20 11:15:29;;;;;;;13.48;5.90;;;;;;;;;;7370776;19;20757;-69
2023/05/20 11:17:57;;;;;;;9.02;5.70;;;;;;;;;;7373061;19;20330;-69
2023/05/20 11:20:23;;;;;;;10.30;5.70;;;;;;;;;;7374977;19;20472;-70
2023/05/20 11:22:53;;;;;;;9.23;5.47;;;;;;;;;;7376169;19;20017;-70
2023/05/20 11:25:19;;;;;;;8.67;6.10;;;;;;;;;;7375894;19;20043;-70
2023/05/20 11:27:45;;;;;;;8.43;6.00;;;;;;;;;;7394077;19;20003;-70
2023/05/20 11:30:15;;;;;;;14.40;5.82;;;;;;;;;;7374359;19;20006;-70
2023/05/20 11:32:43;;;;;;;7.95;5.35;;;;;;;;;;7374578;19;20035;-70
2023/05/20 11:35:30;;;;;;;8.68;5.50;;;;;;;;;;7376272;19;20007;-70
2023/05/20 11:38:07;;;;;;;7.75;4.82;;;;;;;;;;7372289;19;20006;-70
2023/05/20 11:40:34;;;;;;;10.02;5.38;;;;;;;;;;7373564;19;20006;-69
2023/05/20 11:43:01;;;;;;;9.82;5.10;;;;;;;;;;7398097;19;20010;-70
2023/05/20 11:45:37;;;;;;;11.40;5.50;;;;;;;;;;7374487;19;20017;-70
2023/05/20 11:48:04;;;;;;;9.65;5.25;;;;;;;;;;7371642;19;20006;-70
2023/05/20 11:50:39;;;;;;;9.95;5.55;;;;;;;;;;7373712;19;20018;-70
2023/05/20 11:53:10;;;;;;;9.45;5.93;;;;;;;;;;7378622;19;20018;-69
2023/05/20 11:55:52;;;;;;;8.27;5.15;;;;;;;;;;7378933;19;20021;-69
2023/05/20 11:58:20;;;;;;;13.35;5.38;;;;;;;;;;7371702;19;20002;-70
2023/05/20 12:00:45;;;;;;;9.88;6.22;;;;;;;;;;7393219;19;20010;-71
2023/05/20 12:03:11;;;;;;;9.65;5.70;;;;;;;;;;7368070;19;20449;-70
2023/05/20 12:05:37;;;;;;;8.10;5.47;;;;;;;;;;7369103;19;20425;-70
2023/05/20 12:08:03;;;;;;;8.23;5.15;;;;;;;;;;7365894;19;20042;-70
2023/05/20 12:10:29;;;;;;;8.40;5.53;;;;;;;;;;7367221;19;20007;-69
2023/05/20 12:12:54;;;;;;;8.82;5.75;;;;;;;;;;7386889;19;20017;-70
2023/05/20 12:15:19;;;;;;;11.32;5.22;;;;;;;;;;7365669;19;20078;-71
2023/05/20 12:17:50;;;;;;;8.57;5.40;;;;;;;;;;7365763;19;20351;-71
2023/05/20 12:20:17;;;;;;;8.32;4.68;;;;;;;;;;7366109;19;20014;-68
2023/05/20 12:22:45;;;;;;;6.68;4.03;;;;;;;;;;7365772;19;20533;-69
2023/05/20 12:25:17;;;;;;;8.35;5.50;;;;;;;;;;7368518;19;20010;-71
2023/05/20 12:27:47;;;;;;;8.07;4.80;;;;;;;;;;7384033;19;20002;-71
2023/05/20 12:30:14;;;;;;;8.88;5.15;;;;;;;;;;7367055;19;20002;-71
2023/05/20 12:32:40;;;;;;;7.60;4.82;;;;;;;;;;7361649;19;20978;-71
2023/05/20 12:35:06;;;;;;;7.03;4.70;;;;;;;;;;7369321;19;20021;-71
2023/05/20 12:37:31;;;;;;;9.25;5.22;;;;;;;;;;7370436;19;20014;-70
2023/05/20 12:39:57;;;;;;;6.20;3.80;;;;;;;;;;7396757;19;19998;-70
2023/05/20 12:42:22;;;;;;;7.40;4.88;;;;;;;;;;7371176;19;20003;-70
2023/05/20 12:44:47;;;;;;;6.78;4.63;;;;;;;;;;7373226;19;20522;-72
2023/05/20 12:47:13;;;;;;;8.02;5.50;;;;;;;;;;7371948;19;20032;-69
2023/05/20 12:49:38;;;;;;;13.07;5.28;;;;;;;;;;7370618;19;20031;-69
2023/05/20 12:52:04;;;;;;;11.35;4.78;;;;;;;;;;7390337;19;20011;-69
2023/05/20 12:54:30;;;;;;;11.75;5.35;;;;;;;;;;7369535;19;20035;-69
2023/05/20 12:56:56;;;;;;;8.52;5.50;;;;;;;;;;7368212;19;20070;-70
2023/05/20 12:59:21;;;;;;;10.15;5.40;;;;;;;;;;7367753;19;20018;-71
2023/05/20 13:01:47;;;;;;;9.10;5.50;;;;;;;;;;7369461;19;20019;-70
2023/05/20 13:04:12;;;;;;;8.27;5.50;;;;;;;;;;7369696;19;20074;-71
2023/05/20 13:06:38;;;;;;;8.77;4.70;;;;;;;;;;7389036;19;19995;-70
2023/05/20 13:09:03;;;;;;;8.40;5.40;;;;;;;;;;7367761;19;20013;-71
2023/05/20 13:11:28;;;;;;;10.98;5.68;;;;;;;;;;7363008;19;20456;-70
2023/05/20 13:13:55;;;;;;;8.02;4.38;;;;;;;;;;7367875;19;20010;-71
2023/05/20 13:16:20;;;;;;;6.82;5.00;;;;;;;;;;7365339;19;20002;-70
2023/05/20 13:18:46;;;;;;;8.52;5.28;;;;;;;;;;7388777;19;20350;-71
2023/05/20 13:21:11;;;;;;;8.35;6.00;;;;;;;;;;7368586;19;20003;-71
2023/05/20 13:23:38;;;;;;;10.00;5.68;;;;;;;;;;7367920;19;20699;-70
2023/05/20 13:26:03;;;;;;;6.55;4.57;;;;;;;;;;7369214;19;20006;-70
2023/05/20 13:28:29;;;;;;;8.77;5.40;;;;;;;;;;7367376;19;20468;-70
2023/05/20 13:30:54;;;;;;;9.55;5.40;;;;;;;;;;7389669;19;19999;-71
2023/05/20 13:33:19;;;;;;;8.95;5.20;;;;;;;;;;7370193;19;20465;-70
2023/05/20 13:35:45;;;;;;;8.90;5.95;;;;;;;;;;7371416;19;20384;-70
2023/05/20 13:38:10;;;;;;;10.73;6.65;;;;;;;;;;7369080;19;20011;-70
2023/05/20 13:40:35;;;;;;;9.95;5.88;;;;;;;;;;7370146;19;20446;-70
2023/05/20 13:43:01;;;;;;;8.48;5.43;;;;;;;;;;7392358;19;19995;-70
2023/05/20 13:45:26;;;;;;;8.77;6.03;;;;;;;;;;7370678;19;20007;-70
2023/05/20 13:47:51;;;;;;;9.25;6.05;;;;;;;;;;7368841;19;20410;-70
2023/05/20 13:50:17;;;;;;;9.32;6.30;;;;;;;;;;7369944;19;20022;-70
2023/05/20 13:52:42;;;;;;;7.50;5.38;;;;;;;;;;7368229;19;20005;-69
2023/05/20 13:55:08;;;;;;;11.18;6.20;;;;;;;;;;7384342;19;20453;-68
2023/05/20 13:57:33;;;;;;;8.60;6.38;;;;;;;;;;7382318;19;20025;-70
2023/05/20 13:59:58;;;;;;;11.82;5.97;;;;;;;;;;7368417;19;20003;-70
2023/05/20 14:02:24;;;;;;;8.95;5.32;;;;;;;;;;7370102;19;20071;-70
2023/05/20 14:04:49;;;;;;;10.40;5.82;;;;;;;;;;7371207;19;20020;-71
2023/05/20 14:07:14;;;;;;;10.93;6.25;;;;;;;;;;7368128;19;20422;-70
2023/05/20 14:09:40;;;;;;;9.68;5.85;;;;;;;;;;7391458;19;20006;-70
2023/05/20 14:12:06;;;;;;;9.18;6.18;;;;;;;;;;7369962;19;20019;-70
2023/05/20 14:14:31;;;;;;;11.50;6.80;;;;;;;;;;7370914;19;20014;-70
2023/05/20 14:16:56;;;;;;;9.90;6.20;;;;;;;;;;7369275;19;20018;-70
2023/05/20 14:19:22;;;;;;;10.57;6.07;;;;;;;;;;7368588;19;20010;-70
2023/05/20 14:21:47;;;;;;;7.22;5.28;;;;;;;;;;7391778;19;20058;-70
2023/05/20 14:24:12;;;;;;;8.20;6.00;;;;;;;;;;7369281;19;20502;-70
2023/05/20 14:26:38;;;;;;;7.53;5.70;;;;;;;;;;7369663;19;20010;-70
2023/05/20 14:29:03;;;;;;;8.32;6.30;;;;;;;;;;7369573;19;20022;-70
2023/05/20 14:31:28;;;;;;;9.20;6.22;;;;;;;;;;7371079;19;20520;-70
2023/05/20 14:33:54;;;;;;;11.05;6.88;;;;;;;;;;7392960;19;20003;-70